メインページ
METAR-TAF:

METAR-TAF

空港 :

カリスペル, モンタナ州, アメリカ合衆国

緯度: 48-18-15N, 経度: 114-15-49W, 海抜: 906m

現時点の気象観測

当レポートは1時間7分前の16:55(UTC)に作成
北東の風 4kt
気温 18°C
湿度 49%
気圧 1023 hPa
視程: 16.1km
晴天

METAR: KGPI 211655Z 04004KT 10SM CLR 18/07 A3021 RMK AO2 SLP226 T01830072

時間: 12:02 (18:02 UTC)

予報

当レポートは42分前の17:20(UTC)に作成
予報は21日の 18時(UTC)から 22日の 18時(UTC)まで有効
変向風 4kt
視程: 10km
晴天
21日の 1900時(UTC)から
東/北東の風 8kt
視程: 10km
晴天
22日の 0000時(UTC)から
の風 6kt
視程: 10km
晴天
22日の 0300時(UTC)から
北/北東の風 5kt
視程: 10km
晴天

TAF: KGPI 211720Z 2118/2218 VRB04KT P6SM SKC FM211900 06008KT P6SM SKC FM220000 10006KT P6SM SKC FM220300 02005KT P6SM SKC

4,000以上の空港の気象観測と天気予報(METAR報とTAF報)

利用可能な観測所は地図上に黄色い丸と赤い丸で示す。

丸の上にカーソルを重ねると観測所名を参照できる。

次にクリックすると気象観測と天気予報を参照できる。

マップの切り替え:黒色「×」印の緑ボタンをクリックして拡大、「-」印の緑ボタンをクリックして縮小、緑色の三角印をクリックして隣りの地図に切り替え


METAR-TAF: